This is the latest recevied weather packets stored in our database for station/object DO7CRZ-12. If no packets are shown the sender has not sent any weather packets the latest 10 day(s).
| Time | Temp. | Humidity | Pressure | Rain* | Wind** | Luminosity | Snow |
|---|---|---|---|---|---|---|---|
| 1778097450 | 15.56° C | 78% | 1005.9 hPa | 0 mm | - | 0 W/m² | - |
| 1778096847 | 15.56° C | 77% | 1005.7 hPa | 0 mm | - | 0 W/m² | - |
| 1778096244 | 16.11° C | 75% | 1005.6 hPa | 0 mm | - | 0 W/m² | - |
| 1778095641 | 16.11° C | 74% | 1005.6 hPa | 0 mm | - | 0 W/m² | - |
| 1778094435 | 16.67° C | 73% | 1005.4 hPa | 0 mm | - | 0 W/m² | - |
| 1778093847 | 17.22° C | 71% | 1005.6 hPa | 0 mm | - | 0 W/m² | - |
| 1778093244 | 17.22° C | 70% | 1005.4 hPa | 0 mm | - | 0 W/m² | - |
| 1778092641 | 17.78° C | 68% | 1005.1 hPa | 0 mm | - | 0 W/m² | - |
| 1778092038 | 17.78° C | 67% | 1005.2 hPa | 0 mm | - | 1 W/m² | - |
| 1778091435 | 18.33° C | 66% | 1005 hPa | 0 mm | - | 2 W/m² | - |
| 1778090847 | 18.89° C | 66% | 1004.9 hPa | 0 mm | - | 5 W/m² | - |
| 1778090244 | 19.44° C | 64% | 1004.7 hPa | 0 mm | - | 8 W/m² | - |
| 1778089641 | 19.44° C | 62% | 1004.6 hPa | 0 mm | - | 10 W/m² | - |
| 1778087244 | 20.56° C | 56% | 1004.6 hPa | 0 mm | - | 29 W/m² | - |
| 1778086641 | 21.11° C | 54% | 1004.4 hPa | 0 mm | - | 26 W/m² | - |
| 1778085450 | 21.67° C | 53% | 1004.2 hPa | 0 mm | - | 33 W/m² | - |
| 1778084847 | 21.67° C | 52% | 1004.3 hPa | 0 mm | - | 42 W/m² | - |
| 1778084245 | 22.22° C | 47% | 1004.4 hPa | 0 mm | - | 37 W/m² | - |
| 1778083641 | 22.78° C | 46% | 1004.4 hPa | 0 mm | - | 37 W/m² | - |
| 1778083038 | 23.33° C | 46% | 1004.4 hPa | 0 mm | - | 41 W/m² | - |
| 1778082436 | 23.89° C | 45% | 1004.5 hPa | 0 mm | - | 51 W/m² | - |
| 1778081848 | 25° C | 41% | 1004.7 hPa | 0 mm | - | 62 W/m² | - |
| 1778081245 | 26.67° C | 38% | 1004.5 hPa | 0 mm | - | 109 W/m² | - |
| 1778080642 | 26.67° C | 37% | 1004.7 hPa | 0 mm | - | 197 W/m² | - |
| 1778080039 | 26.11° C | 41% | 1004.7 hPa | 0 mm | - | 257 W/m² | - |
* Rain latest hour (hover to see other rain measurements)
** Current wind speed in m/s (hover to see current wind gust speed)